createdAt,value
2023-04-17T00:13:38.009Z,12.53
2023-04-17T00:28:41.103Z,12.55
2023-04-17T00:43:44.318Z,12.54
2023-04-17T00:58:49.238Z,12.51
2023-04-17T01:13:52.424Z,12.48
2023-04-17T01:28:58.149Z,12.46
2023-04-17T01:44:01.485Z,12.35
2023-04-17T01:59:06.302Z,12.26
2023-04-17T02:14:09.389Z,12.24
2023-04-17T02:29:12.658Z,12.21
2023-04-17T02:44:15.942Z,12.18
2023-04-17T02:59:19.753Z,12.15
2023-04-17T03:14:23.014Z,12.09
2023-04-17T03:29:26.475Z,12.04
2023-04-17T03:44:31.391Z,11.94
2023-04-17T03:59:34.653Z,11.99
2023-04-17T04:14:40.433Z,11.89
2023-04-17T04:29:49.274Z,11.79
2023-04-17T04:44:55.716Z,11.88
2023-04-17T05:00:00.047Z,11.91
2023-04-17T05:15:11.348Z,11.75
2023-04-17T05:30:16.057Z,12.00
2023-04-17T05:45:21.854Z,12.35
2023-04-17T06:00:26.255Z,12.79
2023-04-17T06:15:34.903Z,13.07
2023-04-17T06:30:38.913Z,13.67
2023-04-17T06:45:43.274Z,14.18
2023-04-17T07:00:46.494Z,14.37
2023-04-17T07:15:57.124Z,14.64
2023-04-17T07:31:00.990Z,15.20
2023-04-17T07:46:04.345Z,15.81
2023-04-17T08:01:08.561Z,16.62
2023-04-17T08:16:11.869Z,16.96
2023-04-17T08:31:15.166Z,17.18
2023-04-17T08:46:21.947Z,17.00
2023-04-17T09:01:25.102Z,16.79
2023-04-17T09:16:29.331Z,17.02
2023-04-17T09:31:34.934Z,17.78
2023-04-17T09:46:42.974Z,18.43
2023-04-17T10:01:46.179Z,19.37
2023-04-17T10:16:50.754Z,19.52
2023-04-17T10:32:09.129Z,18.54
2023-04-17T10:47:15.480Z,17.75
2023-04-17T11:02:34.426Z,17.17
2023-04-17T11:17:45.772Z,16.76
2023-04-17T11:32:49.140Z,16.56
2023-04-17T11:47:52.702Z,16.28
2023-04-17T12:02:58.064Z,15.63
2023-04-17T12:18:07.035Z,15.43
2023-04-17T12:33:10.227Z,15.42
2023-04-17T12:48:14.449Z,15.92
2023-04-17T13:03:17.901Z,15.94
2023-04-17T13:18:21.183Z,16.26
2023-04-17T13:33:24.343Z,16.07
2023-04-17T13:48:27.477Z,15.83
2023-04-17T14:03:30.965Z,15.73
2023-04-17T14:18:34.686Z,15.46
2023-04-17T14:33:37.853Z,15.65
2023-04-17T14:50:50.973Z,15.63
2023-04-17T15:05:54.796Z,15.61
2023-04-17T15:20:58.609Z,15.60
2023-04-17T15:36:01.762Z,15.64
2023-04-17T15:51:05.273Z,15.58
2023-04-17T16:06:08.464Z,15.40
2023-04-17T16:21:11.841Z,15.24
2023-04-17T16:36:15.209Z,15.23
2023-04-17T16:51:20.566Z,15.05
2023-04-17T17:06:24.004Z,14.91
2023-04-17T17:21:28.309Z,14.57
2023-04-17T17:36:31.600Z,14.26
2023-04-17T17:51:34.855Z,14.26
2023-04-17T18:06:38.020Z,14.07
2023-04-17T18:21:41.341Z,13.94
2023-04-17T18:36:45.043Z,13.82
2023-04-17T18:51:48.700Z,13.60
2023-04-17T19:06:51.932Z,13.43
2023-04-17T19:21:55.520Z,13.41
2023-04-17T19:36:58.968Z,13.46
2023-04-17T19:52:02.247Z,13.41
2023-04-17T20:07:05.672Z,13.32
2023-04-17T20:22:09.420Z,13.32
2023-04-17T20:37:12.490Z,13.22
2023-04-17T20:52:16.035Z,13.14
2023-04-17T21:07:19.689Z,13.16
2023-04-17T21:22:22.961Z,13.09
2023-04-17T21:37:25.977Z,12.98
2023-04-17T21:52:29.042Z,12.92
2023-04-17T22:07:38.117Z,12.83
2023-04-17T22:22:47.766Z,12.89
2023-04-17T22:37:51.251Z,12.94
2023-04-17T22:52:54.287Z,12.88
2023-04-17T23:07:57.296Z,12.89
2023-04-17T23:23:00.316Z,12.76
2023-04-17T23:38:03.757Z,12.60
2023-04-17T23:53:07.293Z,12.55
